Island Grove, Florida
Current Conditions -  °F | °C
As of 3:53 PM on Tuesday 27 Jan 2015 (Local Time) from KGNV Reporting Station
Clear Clear  
Wind Chill: 65°   Ceiling: Unl
Heat Index: 65°   Visibility: 10mi
Dew Point: 38°   Wind: 16mph
Humidity: 37%   Direction: 270°W
Pressure: 29.89"   Gusts: 24mph
Location:  29.45°N, 82.11°W
Report Text: KGNV 272053Z 27014G21KT 10SM CLR 18/03 A2989 RMK AO2 SLP121 T01830033 55017
Loading
Personal Weather Stations






























Interactive Weather Map New forecast layout! Learn more

10-Day Weather Forecast

Advertisements
Track Severe Weather on mobile